19:32
Airports
History
Links
Donate
Help keep this website running!
PayPal
Bitcoin
Information on this page is community maintained and may be outdated or inaccurate and is intended for reference only or PC simulator navigating.
Always use approved charts for navigating.
LIEO
OLBIA COSTA SMERALDA
OLBIA COSTA SMERALDA (LIEO)
Olbia, Sardegna, Italy (7026)
(C)
Lat/Lng:40° 53' 55.18" N / 9° 31' 3.46" E
40.898661 / 9.517629
Elevation:37'ft 11mMSL
ID / ICAO:LIEO
Runways:1
Longest:(06-24) 2,446.2m 8,026ft Asphalt
Controlled:Yes
Distance To
Airport ID:
Airport Radio Frequencies
ATIS: 113.9
Tower: 122.1, 125.95
Approach: 118.97
Nearby VORs <50NM
Nearby NDBs
METARUpdated 05-27-17 19:20 GMT
Altimeter: 30.09
Visibility: 6.2 statute miles
Wind: 2 knots (080°)
Temp: 19°c 66°f
Humidity: 68.2%

METAR: LIEO 271920Z 08002KT CAVOK 19/13 Q1019

(Powered by phpweather)
Runway 06 / 24
Dimensions:2446.2 x 45.1m 8026' x 148'ft
Surface:Asphalt
Edge Lights:High intensity
Runway 06 [A]Runway 24 [B]
Heading:055°TH 235°TH
Lat:
Lng:
40° 53' 32.68"N
9° 30' 20.47"E
40° 54' 17.68"N
9° 31' 46.46"E
ALS:SALS
TDZ:Yes, lighted
User Notes and Comments
Google Map
Nearby Airports
(C) Cavallo 35.0 NM
2051 NNW 337°
(C) Figari Sud Corse 47.1 NM
LFKF (WX) NNW 332°
(C) Propriano 61.9 NM
LFKO NNW 328°
(C) ALGHERO 66.8 NM
LIEA (WX) WSW 253°
(C) TORTOLI 68.3 NM
LIET S 172°
(C) Solenzara 71.1 NM
LFKS (WX) N 355°
(C) Napoleon Bonaparte 79.9 NM
LFKJ (WX) NNW 332°
VFR Chart
Flight Planning at SkyVector.com